METAR AND TAF INFORMATION
METAR FOR LTDA
ADDS - METARS form results

(1631 UTC 23 February 2019)
Data provider http://aviationweather.gov/metar/data/
 
Forecast for: LTDA (HATAY AIRPORT , TR)
Text: TAF LTDA 231340Z 2315/2324 03012KT 9999 SCT030
Forecast period: 1500 UTC 23 February 2019 to 0000 UTC 24 February 2019
Forecast type: FROM: standard forecast or significant change
Winds: from the NNE (30 degrees) at 14 MPH (12 knots; 6.2 m/s)
Visibility: 6 or more miles 10+ km)
Ceiling: at least 12,000 feet AGL
Clouds: scattered clouds at 3000 feet AGL
Weather: no significant weather forecast for this period
Text: TEMPO 2318/2320 -TSRA FEW025CB SCT030
Forecast period: 1800 to 2000 UTC 23 February 2019
Forecast type: TEMPORARY: The following changes expected for less than half the time period
Visibility: missing
Ceiling: at least 12,000 feet AGL
Clouds: few clouds at 2500 feet AGL
scattered clouds at 3000 feet AGL
Weather: -TSRA  (light rain associated with thunderstorm(s))

 AIRPORT MAP

 RUNWAY INFORMATION
Runway 04 Runway length 9843 ft Runway width 148 ft
Runway elevation 265 ft Runway displaced threshold 0 ft Runway heading 42
Runway 22 Runway length 9843 ft Runway width 148 ft
Runway elevation 267 ft Runway displaced threshold 0 ft Runway heading 222

 AIRPORT FREQUENCIES

 AIRPORT NEAR NAVIGATION AIDS



Copyright © 2011 - 2018 BirgenAir Virtual Airlines. All rights reserved. Developed by Goktug Unver